sensor_id;sensor_type;location;lat;lon;timestamp;P1;durP1;ratioP1;P2;durP2;ratioP2
64826;SDS011;51265;53.972;12.286;2022-11-20T00:01:14;7.20;;;4.45;;
64826;SDS011;51265;53.972;12.286;2022-11-20T00:03:42;7.60;;;4.07;;
64826;SDS011;51265;53.972;12.286;2022-11-20T00:06:10;8.18;;;4.28;;
64826;SDS011;51265;53.972;12.286;2022-11-20T00:08:37;7.95;;;4.95;;
64826;SDS011;51265;53.972;12.286;2022-11-20T00:11:04;8.15;;;4.90;;
64826;SDS011;51265;53.972;12.286;2022-11-20T00:13:35;8.23;;;4.63;;
64826;SDS011;51265;53.972;12.286;2022-11-20T00:16:02;6.60;;;4.30;;
64826;SDS011;51265;53.972;12.286;2022-11-20T00:18:30;6.10;;;3.83;;
64826;SDS011;51265;53.972;12.286;2022-11-20T00:21:04;6.82;;;4.00;;
64826;SDS011;51265;53.972;12.286;2022-11-20T00:23:32;8.13;;;4.15;;
64826;SDS011;51265;53.972;12.286;2022-11-20T00:26:06;6.07;;;3.80;;
64826;SDS011;51265;53.972;12.286;2022-11-20T00:28:33;5.30;;;3.17;;
64826;SDS011;51265;53.972;12.286;2022-11-20T00:31:20;6.82;;;3.53;;
64826;SDS011;51265;53.972;12.286;2022-11-20T00:33:46;5.72;;;3.50;;
64826;SDS011;51265;53.972;12.286;2022-11-20T00:36:14;5.45;;;3.15;;
64826;SDS011;51265;53.972;12.286;2022-11-20T00:38:51;6.18;;;3.63;;
64826;SDS011;51265;53.972;12.286;2022-11-20T00:41:18;6.85;;;3.60;;
64826;SDS011;51265;53.972;12.286;2022-11-20T00:43:44;5.93;;;3.08;;
64826;SDS011;51265;53.972;12.286;2022-11-20T00:46:12;6.30;;;4.20;;
64826;SDS011;51265;53.972;12.286;2022-11-20T00:48:43;6.60;;;4.18;;
64826;SDS011;51265;53.972;12.286;2022-11-20T00:51:10;6.65;;;3.85;;
64826;SDS011;51265;53.972;12.286;2022-11-20T00:53:38;6.82;;;3.88;;
64826;SDS011;51265;53.972;12.286;2022-11-20T00:56:05;6.80;;;3.92;;
64826;SDS011;51265;53.972;12.286;2022-11-20T00:58:37;6.80;;;3.95;;
64826;SDS011;51265;53.972;12.286;2022-11-20T01:01:05;7.50;;;4.60;;
64826;SDS011;51265;53.972;12.286;2022-11-20T01:03:36;7.53;;;3.97;;
64826;SDS011;51265;53.972;12.286;2022-11-20T01:06:15;6.57;;;4.15;;
64826;SDS011;51265;53.972;12.286;2022-11-20T01:08:46;6.10;;;3.65;;
64826;SDS011;51265;53.972;12.286;2022-11-20T01:11:14;6.35;;;3.97;;
64826;SDS011;51265;53.972;12.286;2022-11-20T01:13:42;7.57;;;3.70;;
64826;SDS011;51265;53.972;12.286;2022-11-20T01:18:40;7.60;;;4.18;;
64826;SDS011;51265;53.972;12.286;2022-11-20T01:21:10;7.07;;;3.90;;
64826;SDS011;51265;53.972;12.286;2022-11-20T01:23:39;7.13;;;3.70;;
64826;SDS011;51265;53.972;12.286;2022-11-20T01:26:07;6.38;;;3.80;;
64826;SDS011;51265;53.972;12.286;2022-11-20T01:28:39;6.83;;;4.20;;
64826;SDS011;51265;53.972;12.286;2022-11-20T01:33:44;5.18;;;3.28;;
64826;SDS011;51265;53.972;12.286;2022-11-20T01:36:12;6.90;;;3.63;;
64826;SDS011;51265;53.972;12.286;2022-11-20T01:38:38;4.80;;;3.50;;
64826;SDS011;51265;53.972;12.286;2022-11-20T01:41:05;5.82;;;3.70;;
64826;SDS011;51265;53.972;12.286;2022-11-20T01:43:32;8.57;;;4.32;;
64826;SDS011;51265;53.972;12.286;2022-11-20T01:46:06;9.52;;;5.15;;
64826;SDS011;51265;53.972;12.286;2022-11-20T01:48:57;7.45;;;4.43;;
64826;SDS011;51265;53.972;12.286;2022-11-20T01:51:50;7.72;;;4.53;;
64826;SDS011;51265;53.972;12.286;2022-11-20T01:54:17;7.25;;;4.10;;
64826;SDS011;51265;53.972;12.286;2022-11-20T01:56:50;8.50;;;4.95;;
64826;SDS011;51265;53.972;12.286;2022-11-20T01:59:21;7.35;;;4.38;;
64826;SDS011;51265;53.972;12.286;2022-11-20T02:01:49;8.63;;;4.50;;
64826;SDS011;51265;53.972;12.286;2022-11-20T02:04:16;9.77;;;5.05;;
64826;SDS011;51265;53.972;12.286;2022-11-20T02:06:44;8.85;;;4.78;;
64826;SDS011;51265;53.972;12.286;2022-11-20T02:09:17;8.73;;;4.50;;
64826;SDS011;51265;53.972;12.286;2022-11-20T02:11:43;8.68;;;5.10;;
64826;SDS011;51265;53.972;12.286;2022-11-20T02:14:09;8.30;;;4.78;;
64826;SDS011;51265;53.972;12.286;2022-11-20T02:16:53;10.10;;;4.90;;
64826;SDS011;51265;53.972;12.286;2022-11-20T02:22:09;10.60;;;5.38;;
64826;SDS011;51265;53.972;12.286;2022-11-20T02:24:45;10.88;;;5.70;;
64826;SDS011;51265;53.972;12.286;2022-11-20T02:27:14;10.82;;;5.88;;
64826;SDS011;51265;53.972;12.286;2022-11-20T02:29:44;12.15;;;6.18;;
64826;SDS011;51265;53.972;12.286;2022-11-20T02:32:20;12.40;;;7.15;;
64826;SDS011;51265;53.972;12.286;2022-11-20T02:34:48;14.88;;;7.22;;
64826;SDS011;51265;53.972;12.286;2022-11-20T02:37:14;14.55;;;6.75;;
64826;SDS011;51265;53.972;12.286;2022-11-20T02:39:41;15.18;;;7.07;;
64826;SDS011;51265;53.972;12.286;2022-11-20T02:42:08;11.60;;;6.68;;
64826;SDS011;51265;53.972;12.286;2022-11-20T02:44:34;12.95;;;5.82;;
64826;SDS011;51265;53.972;12.286;2022-11-20T02:47:01;10.82;;;5.65;;
64826;SDS011;51265;53.972;12.286;2022-11-20T02:49:27;13.93;;;7.35;;
64826;SDS011;51265;53.972;12.286;2022-11-20T02:51:53;12.65;;;6.47;;
64826;SDS011;51265;53.972;12.286;2022-11-20T02:54:19;14.27;;;6.78;;
64826;SDS011;51265;53.972;12.286;2022-11-20T02:56:45;15.20;;;6.93;;
64826;SDS011;51265;53.972;12.286;2022-11-20T02:59:11;18.50;;;8.32;;
64826;SDS011;51265;53.972;12.286;2022-11-20T03:01:37;19.23;;;8.40;;
64826;SDS011;51265;53.972;12.286;2022-11-20T03:04:04;16.15;;;8.65;;
64826;SDS011;51265;53.972;12.286;2022-11-20T03:06:34;17.63;;;8.25;;
64826;SDS011;51265;53.972;12.286;2022-11-20T03:09:00;17.90;;;7.60;;
64826;SDS011;51265;53.972;12.286;2022-11-20T03:11:26;20.35;;;8.38;;
64826;SDS011;51265;53.972;12.286;2022-11-20T03:13:52;16.85;;;8.27;;
64826;SDS011;51265;53.972;12.286;2022-11-20T03:16:20;16.25;;;7.38;;
64826;SDS011;51265;53.972;12.286;2022-11-20T03:18:47;16.48;;;7.82;;
64826;SDS011;51265;53.972;12.286;2022-11-20T03:21:13;16.73;;;7.55;;
64826;SDS011;51265;53.972;12.286;2022-11-20T03:23:40;18.10;;;7.32;;
64826;SDS011;51265;53.972;12.286;2022-11-20T03:26:28;17.77;;;7.30;;
64826;SDS011;51265;53.972;12.286;2022-11-20T03:28:54;14.27;;;6.40;;
64826;SDS011;51265;53.972;12.286;2022-11-20T03:31:23;14.82;;;6.70;;
64826;SDS011;51265;53.972;12.286;2022-11-20T03:33:57;18.35;;;6.82;;
64826;SDS011;51265;53.972;12.286;2022-11-20T03:36:24;16.63;;;6.78;;
64826;SDS011;51265;53.972;12.286;2022-11-20T03:38:50;18.55;;;6.63;;
64826;SDS011;51265;53.972;12.286;2022-11-20T03:41:19;18.67;;;6.60;;
64826;SDS011;51265;53.972;12.286;2022-11-20T03:43:47;15.63;;;6.15;;
64826;SDS011;51265;53.972;12.286;2022-11-20T03:46:14;14.18;;;5.97;;
64826;SDS011;51265;53.972;12.286;2022-11-20T03:48:40;12.55;;;5.85;;
64826;SDS011;51265;53.972;12.286;2022-11-20T03:51:26;19.27;;;6.47;;
64826;SDS011;51265;53.972;12.286;2022-11-20T03:53:54;14.90;;;5.78;;
64826;SDS011;51265;53.972;12.286;2022-11-20T03:56:23;13.38;;;5.90;;
64826;SDS011;51265;53.972;12.286;2022-11-20T03:58:51;17.58;;;6.35;;
64826;SDS011;51265;53.972;12.286;2022-11-20T04:01:21;14.52;;;6.50;;
64826;SDS011;51265;53.972;12.286;2022-11-20T04:03:49;14.65;;;6.55;;
64826;SDS011;51265;53.972;12.286;2022-11-20T04:06:18;12.48;;;5.93;;
64826;SDS011;51265;53.972;12.286;2022-11-20T04:08:46;16.65;;;6.65;;
64826;SDS011;51265;53.972;12.286;2022-11-20T04:11:13;17.65;;;7.20;;
64826;SDS011;51265;53.972;12.286;2022-11-20T04:13:46;15.20;;;6.68;;
64826;SDS011;51265;53.972;12.286;2022-11-20T04:16:13;15.68;;;6.53;;
64826;SDS011;51265;53.972;12.286;2022-11-20T04:18:40;15.07;;;6.90;;
64826;SDS011;51265;53.972;12.286;2022-11-20T04:21:06;16.77;;;6.55;;
64826;SDS011;51265;53.972;12.286;2022-11-20T04:23:33;15.80;;;6.45;;
64826;SDS011;51265;53.972;12.286;2022-11-20T04:26:03;18.33;;;7.55;;
64826;SDS011;51265;53.972;12.286;2022-11-20T04:28:33;17.17;;;7.82;;
64826;SDS011;51265;53.972;12.286;2022-11-20T04:33:40;15.50;;;7.45;;
64826;SDS011;51265;53.972;12.286;2022-11-20T04:36:11;19.77;;;7.25;;
64826;SDS011;51265;53.972;12.286;2022-11-20T04:38:42;15.13;;;6.88;;
64826;SDS011;51265;53.972;12.286;2022-11-20T04:41:09;20.58;;;8.25;;
64826;SDS011;51265;53.972;12.286;2022-11-20T04:43:40;18.92;;;8.48;;
64826;SDS011;51265;53.972;12.286;2022-11-20T04:46:06;18.50;;;7.65;;
64826;SDS011;51265;53.972;12.286;2022-11-20T04:48:32;22.33;;;7.72;;
64826;SDS011;51265;53.972;12.286;2022-11-20T04:51:02;19.88;;;7.80;;
64826;SDS011;51265;53.972;12.286;2022-11-20T04:53:29;16.95;;;7.65;;
64826;SDS011;51265;53.972;12.286;2022-11-20T04:56:03;18.30;;;7.97;;
64826;SDS011;51265;53.972;12.286;2022-11-20T04:58:31;20.58;;;8.68;;
64826;SDS011;51265;53.972;12.286;2022-11-20T05:01:01;20.55;;;8.15;;
64826;SDS011;51265;53.972;12.286;2022-11-20T05:03:31;18.98;;;8.05;;
64826;SDS011;51265;53.972;12.286;2022-11-20T05:06:02;18.60;;;7.72;;
64826;SDS011;51265;53.972;12.286;2022-11-20T05:08:30;21.88;;;8.15;;
64826;SDS011;51265;53.972;12.286;2022-11-20T05:11:03;14.73;;;7.28;;
64826;SDS011;51265;53.972;12.286;2022-11-20T05:13:31;20.17;;;7.47;;
64826;SDS011;51265;53.972;12.286;2022-11-20T05:16:04;21.40;;;7.60;;
64826;SDS011;51265;53.972;12.286;2022-11-20T05:18:33;18.10;;;6.97;;
64826;SDS011;51265;53.972;12.286;2022-11-20T05:21:00;15.77;;;7.53;;
64826;SDS011;51265;53.972;12.286;2022-11-20T05:23:27;18.25;;;6.68;;
64826;SDS011;51265;53.972;12.286;2022-11-20T05:25:53;15.90;;;6.90;;
64826;SDS011;51265;53.972;12.286;2022-11-20T05:28:20;13.57;;;6.05;;
64826;SDS011;51265;53.972;12.286;2022-11-20T05:30:46;18.63;;;6.72;;
64826;SDS011;51265;53.972;12.286;2022-11-20T05:33:13;14.15;;;6.47;;
64826;SDS011;51265;53.972;12.286;2022-11-20T05:35:39;13.80;;;5.82;;
64826;SDS011;51265;53.972;12.286;2022-11-20T05:38:05;12.82;;;6.38;;
64826;SDS011;51265;53.972;12.286;2022-11-20T05:40:31;12.23;;;5.80;;
64826;SDS011;51265;53.972;12.286;2022-11-20T05:42:57;16.58;;;6.45;;
64826;SDS011;51265;53.972;12.286;2022-11-20T05:45:23;12.27;;;5.35;;
64826;SDS011;51265;53.972;12.286;2022-11-20T05:47:49;11.25;;;5.47;;
64826;SDS011;51265;53.972;12.286;2022-11-20T05:50:15;14.95;;;6.00;;
64826;SDS011;51265;53.972;12.286;2022-11-20T05:52:41;13.95;;;6.15;;
64826;SDS011;51265;53.972;12.286;2022-11-20T05:55:07;11.55;;;5.18;;
64826;SDS011;51265;53.972;12.286;2022-11-20T05:57:34;13.95;;;6.40;;
64826;SDS011;51265;53.972;12.286;2022-11-20T06:00:00;11.68;;;5.53;;
64826;SDS011;51265;53.972;12.286;2022-11-20T06:02:30;16.50;;;5.70;;
64826;SDS011;51265;53.972;12.286;2022-11-20T06:04:56;10.60;;;5.00;;
64826;SDS011;51265;53.972;12.286;2022-11-20T06:07:22;9.73;;;4.07;;
64826;SDS011;51265;53.972;12.286;2022-11-20T06:09:48;9.75;;;4.68;;
64826;SDS011;51265;53.972;12.286;2022-11-20T06:12:14;9.95;;;4.82;;
64826;SDS011;51265;53.972;12.286;2022-11-20T06:14:40;12.98;;;5.28;;
64826;SDS011;51265;53.972;12.286;2022-11-20T06:17:06;12.40;;;5.25;;
64826;SDS011;51265;53.972;12.286;2022-11-20T06:19:32;12.35;;;5.38;;
64826;SDS011;51265;53.972;12.286;2022-11-20T06:21:58;9.00;;;4.95;;
64826;SDS011;51265;53.972;12.286;2022-11-20T06:24:23;10.90;;;5.25;;
64826;SDS011;51265;53.972;12.286;2022-11-20T06:26:51;15.00;;;5.97;;
64826;SDS011;51265;53.972;12.286;2022-11-20T06:29:17;13.45;;;5.05;;
64826;SDS011;51265;53.972;12.286;2022-11-20T06:31:43;12.50;;;5.47;;
64826;SDS011;51265;53.972;12.286;2022-11-20T06:34:09;10.77;;;4.43;;
64826;SDS011;51265;53.972;12.286;2022-11-20T06:36:35;11.07;;;5.10;;
64826;SDS011;51265;53.972;12.286;2022-11-20T06:39:01;13.30;;;5.53;;
64826;SDS011;51265;53.972;12.286;2022-11-20T06:41:27;11.48;;;5.43;;
64826;SDS011;51265;53.972;12.286;2022-11-20T06:43:54;12.02;;;5.65;;
64826;SDS011;51265;53.972;12.286;2022-11-20T06:46:20;10.50;;;5.22;;
64826;SDS011;51265;53.972;12.286;2022-11-20T06:48:46;11.18;;;5.38;;
64826;SDS011;51265;53.972;12.286;2022-11-20T06:51:13;13.45;;;6.20;;
64826;SDS011;51265;53.972;12.286;2022-11-20T06:53:39;12.35;;;5.70;;
64826;SDS011;51265;53.972;12.286;2022-11-20T06:56:06;12.30;;;5.63;;
64826;SDS011;51265;53.972;12.286;2022-11-20T06:58:32;11.65;;;5.55;;
64826;SDS011;51265;53.972;12.286;2022-11-20T07:01:00;12.45;;;5.68;;
64826;SDS011;51265;53.972;12.286;2022-11-20T07:03:30;13.13;;;5.90;;
64826;SDS011;51265;53.972;12.286;2022-11-20T07:05:57;10.50;;;4.68;;
64826;SDS011;51265;53.972;12.286;2022-11-20T07:08:25;12.73;;;5.35;;
64826;SDS011;51265;53.972;12.286;2022-11-20T07:10:51;11.20;;;4.85;;
64826;SDS011;51265;53.972;12.286;2022-11-20T07:13:18;12.60;;;5.85;;
64826;SDS011;51265;53.972;12.286;2022-11-20T07:15:43;12.45;;;5.50;;
64826;SDS011;51265;53.972;12.286;2022-11-20T07:18:10;10.18;;;4.88;;
64826;SDS011;51265;53.972;12.286;2022-11-20T07:20:35;10.27;;;4.95;;
64826;SDS011;51265;53.972;12.286;2022-11-20T07:23:01;14.02;;;5.45;;
64826;SDS011;51265;53.972;12.286;2022-11-20T07:25:28;9.90;;;5.07;;
64826;SDS011;51265;53.972;12.286;2022-11-20T07:27:57;10.68;;;4.88;;
64826;SDS011;51265;53.972;12.286;2022-11-20T07:30:24;10.88;;;4.70;;
64826;SDS011;51265;53.972;12.286;2022-11-20T07:32:51;12.13;;;5.30;;
64826;SDS011;51265;53.972;12.286;2022-11-20T07:35:18;11.63;;;4.50;;
64826;SDS011;51265;53.972;12.286;2022-11-20T07:37:45;9.95;;;4.57;;
64826;SDS011;51265;53.972;12.286;2022-11-20T07:40:20;12.13;;;4.93;;
64826;SDS011;51265;53.972;12.286;2022-11-20T07:42:53;11.23;;;4.63;;
64826;SDS011;51265;53.972;12.286;2022-11-20T07:45:21;11.43;;;5.18;;
64826;SDS011;51265;53.972;12.286;2022-11-20T07:47:49;12.60;;;5.30;;
64826;SDS011;51265;53.972;12.286;2022-11-20T07:50:15;11.32;;;4.93;;
64826;SDS011;51265;53.972;12.286;2022-11-20T07:52:41;9.20;;;4.75;;
64826;SDS011;51265;53.972;12.286;2022-11-20T07:55:08;9.15;;;4.53;;
64826;SDS011;51265;53.972;12.286;2022-11-20T07:57:35;10.55;;;4.63;;
64826;SDS011;51265;53.972;12.286;2022-11-20T08:00:02;10.70;;;4.55;;
64826;SDS011;51265;53.972;12.286;2022-11-20T08:02:40;11.75;;;4.38;;
64826;SDS011;51265;53.972;12.286;2022-11-20T08:05:10;12.07;;;4.55;;
64826;SDS011;51265;53.972;12.286;2022-11-20T08:07:40;10.60;;;4.88;;
64826;SDS011;51265;53.972;12.286;2022-11-20T08:10:08;9.32;;;4.80;;
64826;SDS011;51265;53.972;12.286;2022-11-20T08:12:42;10.95;;;5.07;;
64826;SDS011;51265;53.972;12.286;2022-11-20T08:15:28;10.45;;;4.70;;
64826;SDS011;51265;53.972;12.286;2022-11-20T08:18:04;10.95;;;4.78;;
64826;SDS011;51265;53.972;12.286;2022-11-20T08:20:32;8.73;;;4.50;;
64826;SDS011;51265;53.972;12.286;2022-11-20T08:23:00;11.45;;;4.97;;
64826;SDS011;51265;53.972;12.286;2022-11-20T08:25:30;12.63;;;5.25;;
64826;SDS011;51265;53.972;12.286;2022-11-20T08:28:02;12.98;;;4.90;;
64826;SDS011;51265;53.972;12.286;2022-11-20T08:30:30;12.32;;;4.78;;
64826;SDS011;51265;53.972;12.286;2022-11-20T08:33:00;11.10;;;4.90;;
64826;SDS011;51265;53.972;12.286;2022-11-20T08:35:28;11.05;;;4.90;;
64826;SDS011;51265;53.972;12.286;2022-11-20T08:37:54;18.33;;;5.30;;
64826;SDS011;51265;53.972;12.286;2022-11-20T08:40:20;9.18;;;4.55;;
64826;SDS011;51265;53.972;12.286;2022-11-20T08:42:47;10.18;;;5.05;;
64826;SDS011;51265;53.972;12.286;2022-11-20T08:45:14;11.95;;;4.75;;
64826;SDS011;51265;53.972;12.286;2022-11-20T08:47:41;10.43;;;5.13;;
64826;SDS011;51265;53.972;12.286;2022-11-20T08:50:09;18.67;;;7.43;;
64826;SDS011;51265;53.972;12.286;2022-11-20T08:52:39;19.08;;;6.60;;
64826;SDS011;51265;53.972;12.286;2022-11-20T08:55:06;18.27;;;6.25;;
64826;SDS011;51265;53.972;12.286;2022-11-20T08:57:36;28.58;;;7.10;;
64826;SDS011;51265;53.972;12.286;2022-11-20T09:00:03;18.38;;;7.43;;
64826;SDS011;51265;53.972;12.286;2022-11-20T09:02:32;29.08;;;7.75;;
64826;SDS011;51265;53.972;12.286;2022-11-20T09:04:58;16.17;;;7.55;;
64826;SDS011;51265;53.972;12.286;2022-11-20T09:07:24;23.75;;;7.28;;
64826;SDS011;51265;53.972;12.286;2022-11-20T09:09:50;42.28;;;8.98;;
64826;SDS011;51265;53.972;12.286;2022-11-20T09:12:16;35.47;;;8.35;;
64826;SDS011;51265;53.972;12.286;2022-11-20T09:14:53;25.70;;;8.20;;
64826;SDS011;51265;53.972;12.286;2022-11-20T09:17:19;14.43;;;6.68;;
64826;SDS011;51265;53.972;12.286;2022-11-20T09:19:46;22.20;;;8.23;;
64826;SDS011;51265;53.972;12.286;2022-11-20T09:22:14;14.63;;;6.90;;
64826;SDS011;51265;53.972;12.286;2022-11-20T09:24:40;18.83;;;7.70;;
64826;SDS011;51265;53.972;12.286;2022-11-20T09:27:06;14.98;;;6.20;;
64826;SDS011;51265;53.972;12.286;2022-11-20T09:29:32;15.70;;;7.82;;
64826;SDS011;51265;53.972;12.286;2022-11-20T09:32:00;14.88;;;7.28;;
64826;SDS011;51265;53.972;12.286;2022-11-20T09:34:26;15.90;;;6.90;;
64826;SDS011;51265;53.972;12.286;2022-11-20T09:36:53;16.15;;;6.25;;
64826;SDS011;51265;53.972;12.286;2022-11-20T09:39:19;12.45;;;5.40;;
64826;SDS011;51265;53.972;12.286;2022-11-20T09:44:27;11.98;;;5.40;;
64826;SDS011;51265;53.972;12.286;2022-11-20T09:55:19;9.73;;;5.10;;
64826;SDS011;51265;53.972;12.286;2022-11-20T09:57:46;11.77;;;6.00;;
64826;SDS011;51265;53.972;12.286;2022-11-20T10:00:16;13.73;;;5.28;;
64826;SDS011;51265;53.972;12.286;2022-11-20T10:05:37;11.82;;;5.43;;
64826;SDS011;51265;53.972;12.286;2022-11-20T10:10:45;11.13;;;5.47;;
64826;SDS011;51265;53.972;12.286;2022-11-20T10:22:24;9.93;;;4.95;;
64826;SDS011;51265;53.972;12.286;2022-11-20T10:30:30;8.20;;;4.50;;
64826;SDS011;51265;53.972;12.286;2022-11-20T10:33:06;12.23;;;5.40;;
64826;SDS011;51265;53.972;12.286;2022-11-20T10:35:43;8.65;;;4.40;;
64826;SDS011;51265;53.972;12.286;2022-11-20T10:40:57;9.20;;;4.88;;
64826;SDS011;51265;53.972;12.286;2022-11-20T10:43:46;8.35;;;4.78;;
64826;SDS011;51265;53.972;12.286;2022-11-20T10:46:15;10.35;;;5.25;;
64826;SDS011;51265;53.972;12.286;2022-11-20T10:48:44;13.15;;;6.05;;
64826;SDS011;51265;53.972;12.286;2022-11-20T10:51:28;9.77;;;5.45;;
64826;SDS011;51265;53.972;12.286;2022-11-20T10:54:22;9.90;;;5.55;;
64826;SDS011;51265;53.972;12.286;2022-11-20T10:56:50;10.85;;;5.32;;
64826;SDS011;51265;53.972;12.286;2022-11-20T11:02:16;9.25;;;5.32;;
64826;SDS011;51265;53.972;12.286;2022-11-20T11:04:54;12.32;;;5.78;;
64826;SDS011;51265;53.972;12.286;2022-11-20T11:07:36;11.80;;;5.93;;
64826;SDS011;51265;53.972;12.286;2022-11-20T11:10:18;13.85;;;5.80;;
64826;SDS011;51265;53.972;12.286;2022-11-20T11:12:48;10.20;;;5.20;;
64826;SDS011;51265;53.972;12.286;2022-11-20T11:18:09;9.30;;;4.95;;
64826;SDS011;51265;53.972;12.286;2022-11-20T11:20:37;8.15;;;4.70;;
64826;SDS011;51265;53.972;12.286;2022-11-20T11:23:03;8.88;;;4.70;;
64826;SDS011;51265;53.972;12.286;2022-11-20T11:25:30;7.45;;;4.07;;
64826;SDS011;51265;53.972;12.286;2022-11-20T11:30:46;6.88;;;4.00;;
64826;SDS011;51265;53.972;12.286;2022-11-20T11:33:27;7.88;;;4.22;;
64826;SDS011;51265;53.972;12.286;2022-11-20T11:35:55;7.47;;;3.83;;
64826;SDS011;51265;53.972;12.286;2022-11-20T11:38:42;6.55;;;3.95;;
64826;SDS011;51265;53.972;12.286;2022-11-20T11:41:12;6.75;;;3.97;;
64826;SDS011;51265;53.972;12.286;2022-11-20T11:43:54;6.63;;;3.67;;
64826;SDS011;51265;53.972;12.286;2022-11-20T11:46:44;8.93;;;3.17;;
64826;SDS011;51265;53.972;12.286;2022-11-20T11:49:18;5.20;;;3.42;;
64826;SDS011;51265;53.972;12.286;2022-11-20T11:54:14;8.23;;;4.30;;
64826;SDS011;51265;53.972;12.286;2022-11-20T11:56:45;6.85;;;3.80;;
64826;SDS011;51265;53.972;12.286;2022-11-20T11:59:15;5.82;;;3.78;;
64826;SDS011;51265;53.972;12.286;2022-11-20T12:01:51;8.27;;;4.15;;
64826;SDS011;51265;53.972;12.286;2022-11-20T12:07:11;7.22;;;4.65;;
64826;SDS011;51265;53.972;12.286;2022-11-20T12:09:49;6.53;;;4.20;;
64826;SDS011;51265;53.972;12.286;2022-11-20T12:12:20;5.40;;;3.75;;
64826;SDS011;51265;53.972;12.286;2022-11-20T12:14:54;8.20;;;4.32;;
64826;SDS011;51265;53.972;12.286;2022-11-20T12:17:22;7.25;;;4.25;;
64826;SDS011;51265;53.972;12.286;2022-11-20T12:19:49;7.35;;;5.00;;
64826;SDS011;51265;53.972;12.286;2022-11-20T12:25:08;8.07;;;5.07;;
64826;SDS011;51265;53.972;12.286;2022-11-20T12:27:52;7.65;;;5.38;;
64826;SDS011;51265;53.972;12.286;2022-11-20T12:30:30;7.85;;;5.38;;
64826;SDS011;51265;53.972;12.286;2022-11-20T12:43:48;8.88;;;5.18;;
64826;SDS011;51265;53.972;12.286;2022-11-20T12:58:06;7.25;;;4.97;;
64826;SDS011;51265;53.972;12.286;2022-11-20T13:00:47;8.70;;;5.82;;
64826;SDS011;51265;53.972;12.286;2022-11-20T13:06:17;6.32;;;4.80;;
64826;SDS011;51265;53.972;12.286;2022-11-20T13:08:49;7.32;;;5.10;;
64826;SDS011;51265;53.972;12.286;2022-11-20T13:14:12;6.25;;;4.55;;
64826;SDS011;51265;53.972;12.286;2022-11-20T13:16:52;6.55;;;4.50;;
64826;SDS011;51265;53.972;12.286;2022-11-20T13:19:24;6.15;;;4.40;;
64826;SDS011;51265;53.972;12.286;2022-11-20T13:21:51;5.70;;;4.43;;
64826;SDS011;51265;53.972;12.286;2022-11-20T13:24:21;5.50;;;3.90;;
64826;SDS011;51265;53.972;12.286;2022-11-20T13:29:36;5.60;;;4.10;;
64826;SDS011;51265;53.972;12.286;2022-11-20T13:32:04;5.97;;;4.35;;
64826;SDS011;51265;53.972;12.286;2022-11-20T13:34:53;6.28;;;3.90;;
64826;SDS011;51265;53.972;12.286;2022-11-20T13:37:26;5.97;;;4.35;;
64826;SDS011;51265;53.972;12.286;2022-11-20T13:42:37;5.55;;;3.55;;
64826;SDS011;51265;53.972;12.286;2022-11-20T13:45:10;5.95;;;4.05;;
64826;SDS011;51265;53.972;12.286;2022-11-20T13:47:48;5.68;;;3.67;;
64826;SDS011;51265;53.972;12.286;2022-11-20T13:50:15;6.38;;;4.50;;
64826;SDS011;51265;53.972;12.286;2022-11-20T14:00:57;7.90;;;4.45;;
64826;SDS011;51265;53.972;12.286;2022-11-20T14:03:28;6.72;;;4.28;;
64826;SDS011;51265;53.972;12.286;2022-11-20T14:06:00;6.78;;;4.38;;
64826;SDS011;51265;53.972;12.286;2022-11-20T14:08:38;7.35;;;4.68;;
64826;SDS011;51265;53.972;12.286;2022-11-20T14:13:54;8.70;;;5.53;;
64826;SDS011;51265;53.972;12.286;2022-11-20T14:16:27;8.70;;;5.00;;
64826;SDS011;51265;53.972;12.286;2022-11-20T14:18:54;8.63;;;5.13;;
64826;SDS011;51265;53.972;12.286;2022-11-20T14:21:26;7.38;;;4.90;;
64826;SDS011;51265;53.972;12.286;2022-11-20T14:24:02;7.93;;;4.95;;
64826;SDS011;51265;53.972;12.286;2022-11-20T14:26:29;9.02;;;4.78;;
64826;SDS011;51265;53.972;12.286;2022-11-20T14:28:56;8.90;;;4.60;;
64826;SDS011;51265;53.972;12.286;2022-11-20T14:31:23;7.03;;;4.95;;
64826;SDS011;51265;53.972;12.286;2022-11-20T14:33:52;6.63;;;4.13;;
64826;SDS011;51265;53.972;12.286;2022-11-20T14:36:24;5.28;;;3.53;;
64826;SDS011;51265;53.972;12.286;2022-11-20T14:38:51;5.40;;;3.63;;
64826;SDS011;51265;53.972;12.286;2022-11-20T14:41:19;6.22;;;3.80;;
64826;SDS011;51265;53.972;12.286;2022-11-20T14:43:58;5.00;;;3.65;;
64826;SDS011;51265;53.972;12.286;2022-11-20T14:46:27;6.80;;;3.45;;
64826;SDS011;51265;53.972;12.286;2022-11-20T14:48:55;4.90;;;3.28;;
64826;SDS011;51265;53.972;12.286;2022-11-20T14:51:32;6.20;;;3.47;;
64826;SDS011;51265;53.972;12.286;2022-11-20T14:56:37;5.30;;;3.55;;
64826;SDS011;51265;53.972;12.286;2022-11-20T14:59:03;6.28;;;4.38;;
64826;SDS011;51265;53.972;12.286;2022-11-20T15:01:30;8.00;;;5.00;;
64826;SDS011;51265;53.972;12.286;2022-11-20T15:04:02;9.02;;;4.75;;
64826;SDS011;51265;53.972;12.286;2022-11-20T15:06:33;5.90;;;4.20;;
64826;SDS011;51265;53.972;12.286;2022-11-20T15:08:59;7.70;;;4.72;;
64826;SDS011;51265;53.972;12.286;2022-11-20T15:11:27;6.22;;;3.95;;
64826;SDS011;51265;53.972;12.286;2022-11-20T15:13:55;6.32;;;3.78;;
64826;SDS011;51265;53.972;12.286;2022-11-20T15:16:22;7.05;;;4.20;;
64826;SDS011;51265;53.972;12.286;2022-11-20T15:18:50;8.70;;;5.05;;
64826;SDS011;51265;53.972;12.286;2022-11-20T15:21:17;9.82;;;5.35;;
64826;SDS011;51265;53.972;12.286;2022-11-20T15:23:45;8.77;;;5.13;;
64826;SDS011;51265;53.972;12.286;2022-11-20T15:26:11;9.00;;;4.32;;
64826;SDS011;51265;53.972;12.286;2022-11-20T15:28:40;6.78;;;4.45;;
64826;SDS011;51265;53.972;12.286;2022-11-20T15:31:12;7.53;;;4.70;;
64826;SDS011;51265;53.972;12.286;2022-11-20T15:33:40;10.10;;;5.43;;
64826;SDS011;51265;53.972;12.286;2022-11-20T15:36:06;7.50;;;5.13;;
64826;SDS011;51265;53.972;12.286;2022-11-20T15:38:34;9.70;;;5.25;;
64826;SDS011;51265;53.972;12.286;2022-11-20T15:41:00;8.23;;;4.78;;
64826;SDS011;51265;53.972;12.286;2022-11-20T15:43:26;8.77;;;5.38;;
64826;SDS011;51265;53.972;12.286;2022-11-20T15:45:53;9.55;;;5.65;;
64826;SDS011;51265;53.972;12.286;2022-11-20T15:48:31;9.15;;;5.30;;
64826;SDS011;51265;53.972;12.286;2022-11-20T15:53:37;7.63;;;4.82;;
64826;SDS011;51265;53.972;12.286;2022-11-20T15:56:05;7.63;;;4.95;;
64826;SDS011;51265;53.972;12.286;2022-11-20T15:58:36;9.38;;;5.50;;
64826;SDS011;51265;53.972;12.286;2022-11-20T16:01:02;7.32;;;4.35;;
64826;SDS011;51265;53.972;12.286;2022-11-20T16:03:28;8.85;;;4.93;;
64826;SDS011;51265;53.972;12.286;2022-11-20T16:05:54;9.02;;;5.10;;
64826;SDS011;51265;53.972;12.286;2022-11-20T16:08:20;8.35;;;5.05;;
64826;SDS011;51265;53.972;12.286;2022-11-20T16:10:46;9.80;;;5.68;;
64826;SDS011;51265;53.972;12.286;2022-11-20T16:13:13;9.20;;;5.20;;
64826;SDS011;51265;53.972;12.286;2022-11-20T16:16:03;7.32;;;4.90;;
64826;SDS011;51265;53.972;12.286;2022-11-20T16:18:32;7.43;;;4.72;;
64826;SDS011;51265;53.972;12.286;2022-11-20T16:20:59;7.47;;;5.00;;
64826;SDS011;51265;53.972;12.286;2022-11-20T16:23:25;22.40;;;10.95;;
64826;SDS011;51265;53.972;12.286;2022-11-20T16:25:51;18.08;;;8.70;;
64826;SDS011;51265;53.972;12.286;2022-11-20T16:28:17;8.63;;;5.07;;
64826;SDS011;51265;53.972;12.286;2022-11-20T16:30:43;11.57;;;6.15;;
64826;SDS011;51265;53.972;12.286;2022-11-20T16:33:16;11.20;;;6.05;;